sensor_id;sensor_type;location;lat;lon;timestamp;temperature;humidity
27900;DHT22;15243;50.726;7.080;2022-09-01T00:02:27;18.10;99.90
27900;DHT22;15243;50.726;7.080;2022-09-01T00:04:55;18.00;99.90
27900;DHT22;15243;50.726;7.080;2022-09-01T00:07:26;17.90;99.90
27900;DHT22;15243;50.726;7.080;2022-09-01T00:09:57;17.90;99.90
27900;DHT22;15243;50.726;7.080;2022-09-01T00:12:25;17.80;99.90
27900;DHT22;15243;50.726;7.080;2022-09-01T00:14:52;17.70;99.90
27900;DHT22;15243;50.726;7.080;2022-09-01T00:17:20;17.60;99.90
27900;DHT22;15243;50.726;7.080;2022-09-01T00:19:47;17.60;99.90
27900;DHT22;15243;50.726;7.080;2022-09-01T00:22:14;17.50;99.90
27900;DHT22;15243;50.726;7.080;2022-09-01T00:24:41;17.30;99.90
27900;DHT22;15243;50.726;7.080;2022-09-01T00:27:08;17.30;99.90
27900;DHT22;15243;50.726;7.080;2022-09-01T00:29:35;17.40;99.90
27900;DHT22;15243;50.726;7.080;2022-09-01T00:32:02;17.40;99.90
27900;DHT22;15243;50.726;7.080;2022-09-01T00:34:29;17.30;99.90
27900;DHT22;15243;50.726;7.080;2022-09-01T00:36:56;17.30;99.90
27900;DHT22;15243;50.726;7.080;2022-09-01T00:39:23;17.20;99.90
27900;DHT22;15243;50.726;7.080;2022-09-01T00:41:50;17.00;99.90
27900;DHT22;15243;50.726;7.080;2022-09-01T00:44:20;16.90;99.90
27900;DHT22;15243;50.726;7.080;2022-09-01T00:46:51;16.80;99.90
27900;DHT22;15243;50.726;7.080;2022-09-01T00:49:31;16.70;99.90
27900;DHT22;15243;50.726;7.080;2022-09-01T00:52:16;16.60;99.90
27900;DHT22;15243;50.726;7.080;2022-09-01T00:54:50;16.60;99.90
27900;DHT22;15243;50.726;7.080;2022-09-01T00:57:19;16.50;99.90
27900;DHT22;15243;50.726;7.080;2022-09-01T00:59:56;16.40;99.90
27900;DHT22;15243;50.726;7.080;2022-09-01T01:02:24;16.40;99.90
27900;DHT22;15243;50.726;7.080;2022-09-01T01:04:52;16.40;99.90
27900;DHT22;15243;50.726;7.080;2022-09-01T01:07:22;16.50;99.90
27900;DHT22;15243;50.726;7.080;2022-09-01T01:09:50;16.60;99.90
27900;DHT22;15243;50.726;7.080;2022-09-01T01:12:18;16.60;99.90
27900;DHT22;15243;50.726;7.080;2022-09-01T01:14:47;16.40;99.90
27900;DHT22;15243;50.726;7.080;2022-09-01T01:17:19;16.30;99.90
27900;DHT22;15243;50.726;7.080;2022-09-01T01:19:54;16.30;99.90
27900;DHT22;15243;50.726;7.080;2022-09-01T01:23:14;16.20;99.90
27900;DHT22;15243;50.726;7.080;2022-09-01T01:25:45;16.20;99.90
27900;DHT22;15243;50.726;7.080;2022-09-01T01:28:24;16.20;99.90
27900;DHT22;15243;50.726;7.080;2022-09-01T01:30:55;16.20;99.90
27900;DHT22;15243;50.726;7.080;2022-09-01T01:33:44;16.10;99.90
27900;DHT22;15243;50.726;7.080;2022-09-01T01:36:17;16.00;99.90
27900;DHT22;15243;50.726;7.080;2022-09-01T01:38:46;16.10;99.90
27900;DHT22;15243;50.726;7.080;2022-09-01T01:41:15;16.00;99.90
27900;DHT22;15243;50.726;7.080;2022-09-01T01:43:43;15.80;99.90
27900;DHT22;15243;50.726;7.080;2022-09-01T01:46:11;15.80;99.90
27900;DHT22;15243;50.726;7.080;2022-09-01T01:48:41;15.70;99.90
27900;DHT22;15243;50.726;7.080;2022-09-01T01:51:09;15.70;99.90
27900;DHT22;15243;50.726;7.080;2022-09-01T01:53:38;15.60;99.90
27900;DHT22;15243;50.726;7.080;2022-09-01T01:56:05;15.70;99.90
27900;DHT22;15243;50.726;7.080;2022-09-01T01:58:34;15.60;99.90
27900;DHT22;15243;50.726;7.080;2022-09-01T02:01:01;15.60;99.90
27900;DHT22;15243;50.726;7.080;2022-09-01T02:03:32;15.60;99.90
27900;DHT22;15243;50.726;7.080;2022-09-01T02:06:09;15.60;99.90
27900;DHT22;15243;50.726;7.080;2022-09-01T02:08:38;15.40;99.90
27900;DHT22;15243;50.726;7.080;2022-09-01T02:11:07;15.40;99.90
27900;DHT22;15243;50.726;7.080;2022-09-01T02:13:34;15.40;99.90
27900;DHT22;15243;50.726;7.080;2022-09-01T02:16:05;15.50;99.90
27900;DHT22;15243;50.726;7.080;2022-09-01T02:18:36;15.50;99.90
27900;DHT22;15243;50.726;7.080;2022-09-01T02:21:06;15.50;99.90
27900;DHT22;15243;50.726;7.080;2022-09-01T02:23:43;15.40;99.90
27900;DHT22;15243;50.726;7.080;2022-09-01T02:26:10;15.40;99.90
27900;DHT22;15243;50.726;7.080;2022-09-01T02:28:46;15.50;99.90
27900;DHT22;15243;50.726;7.080;2022-09-01T02:31:21;15.50;99.90
27900;DHT22;15243;50.726;7.080;2022-09-01T02:33:49;15.40;99.90
27900;DHT22;15243;50.726;7.080;2022-09-01T02:36:17;15.40;99.90
27900;DHT22;15243;50.726;7.080;2022-09-01T02:38:46;15.30;99.90
27900;DHT22;15243;50.726;7.080;2022-09-01T02:41:20;15.40;99.90
27900;DHT22;15243;50.726;7.080;2022-09-01T02:43:49;15.30;99.90
27900;DHT22;15243;50.726;7.080;2022-09-01T02:46:17;15.30;99.90
27900;DHT22;15243;50.726;7.080;2022-09-01T02:48:51;15.40;99.90
27900;DHT22;15243;50.726;7.080;2022-09-01T02:51:22;15.30;99.90
27900;DHT22;15243;50.726;7.080;2022-09-01T02:53:51;15.10;99.90
27900;DHT22;15243;50.726;7.080;2022-09-01T02:56:23;15.20;99.90
27900;DHT22;15243;50.726;7.080;2022-09-01T02:58:52;15.20;99.90
27900;DHT22;15243;50.726;7.080;2022-09-01T03:01:28;15.20;99.90
27900;DHT22;15243;50.726;7.080;2022-09-01T03:04:02;15.20;99.90
27900;DHT22;15243;50.726;7.080;2022-09-01T03:06:31;15.30;99.90
27900;DHT22;15243;50.726;7.080;2022-09-01T03:09:01;15.00;99.90
27900;DHT22;15243;50.726;7.080;2022-09-01T03:11:30;14.80;99.90
27900;DHT22;15243;50.726;7.080;2022-09-01T03:13:58;14.80;99.90
27900;DHT22;15243;50.726;7.080;2022-09-01T03:16:26;14.60;99.90
27900;DHT22;15243;50.726;7.080;2022-09-01T03:18:53;14.70;99.90
27900;DHT22;15243;50.726;7.080;2022-09-01T03:21:21;14.70;99.90
27900;DHT22;15243;50.726;7.080;2022-09-01T03:23:50;14.60;99.90
27900;DHT22;15243;50.726;7.080;2022-09-01T03:26:19;14.60;99.90
27900;DHT22;15243;50.726;7.080;2022-09-01T03:28:49;14.50;99.90
27900;DHT22;15243;50.726;7.080;2022-09-01T03:31:18;14.50;99.90
27900;DHT22;15243;50.726;7.080;2022-09-01T03:33:46;14.50;99.90
27900;DHT22;15243;50.726;7.080;2022-09-01T03:36:13;14.50;99.90
27900;DHT22;15243;50.726;7.080;2022-09-01T03:38:49;14.50;99.90
27900;DHT22;15243;50.726;7.080;2022-09-01T03:41:20;14.40;99.90
27900;DHT22;15243;50.726;7.080;2022-09-01T03:43:48;14.30;99.90
27900;DHT22;15243;50.726;7.080;2022-09-01T03:46:17;14.20;99.90
27900;DHT22;15243;50.726;7.080;2022-09-01T03:48:55;14.20;99.90
27900;DHT22;15243;50.726;7.080;2022-09-01T03:51:24;14.20;99.90
27900;DHT22;15243;50.726;7.080;2022-09-01T03:53:53;14.10;99.90
27900;DHT22;15243;50.726;7.080;2022-09-01T03:56:28;14.10;99.90
27900;DHT22;15243;50.726;7.080;2022-09-01T03:58:57;14.10;99.90
27900;DHT22;15243;50.726;7.080;2022-09-01T04:01:26;14.10;99.90
27900;DHT22;15243;50.726;7.080;2022-09-01T04:03:53;14.10;99.90
27900;DHT22;15243;50.726;7.080;2022-09-01T04:06:20;14.10;99.90
27900;DHT22;15243;50.726;7.080;2022-09-01T04:08:51;14.00;99.90
27900;DHT22;15243;50.726;7.080;2022-09-01T04:11:22;13.90;99.90
27900;DHT22;15243;50.726;7.080;2022-09-01T04:13:50;13.90;99.90
27900;DHT22;15243;50.726;7.080;2022-09-01T04:16:26;13.90;99.90
27900;DHT22;15243;50.726;7.080;2022-09-01T04:19:17;13.80;99.90
27900;DHT22;15243;50.726;7.080;2022-09-01T04:21:54;13.90;99.90
27900;DHT22;15243;50.726;7.080;2022-09-01T04:24:23;13.90;99.90
27900;DHT22;15243;50.726;7.080;2022-09-01T04:26:51;13.80;99.90
27900;DHT22;15243;50.726;7.080;2022-09-01T04:29:19;13.80;99.90
27900;DHT22;15243;50.726;7.080;2022-09-01T04:32:00;13.70;99.90
27900;DHT22;15243;50.726;7.080;2022-09-01T04:34:30;13.70;99.90
27900;DHT22;15243;50.726;7.080;2022-09-01T04:39:34;13.60;99.90
27900;DHT22;15243;50.726;7.080;2022-09-01T04:42:02;13.50;99.90
27900;DHT22;15243;50.726;7.080;2022-09-01T04:44:35;13.50;99.90
27900;DHT22;15243;50.726;7.080;2022-09-01T04:47:02;13.40;99.90
27900;DHT22;15243;50.726;7.080;2022-09-01T04:49:29;13.40;99.90
27900;DHT22;15243;50.726;7.080;2022-09-01T04:51:59;13.40;99.90
27900;DHT22;15243;50.726;7.080;2022-09-01T04:54:26;13.40;99.90
27900;DHT22;15243;50.726;7.080;2022-09-01T04:56:53;13.40;99.90
27900;DHT22;15243;50.726;7.080;2022-09-01T04:59:23;13.40;99.90
27900;DHT22;15243;50.726;7.080;2022-09-01T05:01:50;13.30;99.90
27900;DHT22;15243;50.726;7.080;2022-09-01T05:04:23;13.20;99.90
27900;DHT22;15243;50.726;7.080;2022-09-01T05:06:53;13.40;99.90
27900;DHT22;15243;50.726;7.080;2022-09-01T05:09:23;13.30;99.90
27900;DHT22;15243;50.726;7.080;2022-09-01T05:11:51;13.30;99.90
27900;DHT22;15243;50.726;7.080;2022-09-01T05:14:18;13.30;99.90
27900;DHT22;15243;50.726;7.080;2022-09-01T05:16:47;13.30;99.90
27900;DHT22;15243;50.726;7.080;2022-09-01T05:19:17;13.40;99.90
27900;DHT22;15243;50.726;7.080;2022-09-01T05:21:47;13.50;99.90
27900;DHT22;15243;50.726;7.080;2022-09-01T05:24:19;13.40;99.90
27900;DHT22;15243;50.726;7.080;2022-09-01T05:26:47;13.40;99.90
27900;DHT22;15243;50.726;7.080;2022-09-01T05:29:16;13.40;99.90
27900;DHT22;15243;50.726;7.080;2022-09-01T05:31:46;13.40;99.90
27900;DHT22;15243;50.726;7.080;2022-09-01T05:34:16;13.40;99.90
27900;DHT22;15243;50.726;7.080;2022-09-01T05:36:56;13.40;99.90
27900;DHT22;15243;50.726;7.080;2022-09-01T05:39:25;13.50;99.90
27900;DHT22;15243;50.726;7.080;2022-09-01T05:41:53;13.50;99.90
27900;DHT22;15243;50.726;7.080;2022-09-01T05:44:21;13.60;99.90
27900;DHT22;15243;50.726;7.080;2022-09-01T05:46:49;13.70;99.90
27900;DHT22;15243;50.726;7.080;2022-09-01T05:49:16;13.70;99.90
27900;DHT22;15243;50.726;7.080;2022-09-01T05:51:49;13.80;99.90
27900;DHT22;15243;50.726;7.080;2022-09-01T05:54:22;13.90;99.90
27900;DHT22;15243;50.726;7.080;2022-09-01T05:56:51;14.00;99.90
27900;DHT22;15243;50.726;7.080;2022-09-01T05:59:19;14.10;99.90
27900;DHT22;15243;50.726;7.080;2022-09-01T06:01:52;14.20;99.90
27900;DHT22;15243;50.726;7.080;2022-09-01T06:04:21;14.40;99.90
27900;DHT22;15243;50.726;7.080;2022-09-01T06:06:49;14.50;99.90
27900;DHT22;15243;50.726;7.080;2022-09-01T06:09:45;14.60;99.90
27900;DHT22;15243;50.726;7.080;2022-09-01T06:12:14;14.70;99.90
27900;DHT22;15243;50.726;7.080;2022-09-01T06:14:46;14.80;99.90
27900;DHT22;15243;50.726;7.080;2022-09-01T06:17:15;14.90;99.90
27900;DHT22;15243;50.726;7.080;2022-09-01T06:19:42;15.00;99.90
27900;DHT22;15243;50.726;7.080;2022-09-01T06:22:10;15.10;99.90
27900;DHT22;15243;50.726;7.080;2022-09-01T06:24:38;15.30;99.90
27900;DHT22;15243;50.726;7.080;2022-09-01T06:27:10;15.30;99.90
27900;DHT22;15243;50.726;7.080;2022-09-01T06:29:37;15.50;99.90
27900;DHT22;15243;50.726;7.080;2022-09-01T06:32:06;15.70;99.90
27900;DHT22;15243;50.726;7.080;2022-09-01T06:34:39;15.70;99.90
27900;DHT22;15243;50.726;7.080;2022-09-01T06:37:11;15.70;99.90
27900;DHT22;15243;50.726;7.080;2022-09-01T06:39:39;15.80;99.90
27900;DHT22;15243;50.726;7.080;2022-09-01T06:42:06;15.90;99.90
27900;DHT22;15243;50.726;7.080;2022-09-01T06:44:39;16.00;99.90
27900;DHT22;15243;50.726;7.080;2022-09-01T06:47:06;16.10;99.90
27900;DHT22;15243;50.726;7.080;2022-09-01T06:49:34;16.20;99.90
27900;DHT22;15243;50.726;7.080;2022-09-01T06:52:03;16.30;99.90
27900;DHT22;15243;50.726;7.080;2022-09-01T06:54:30;16.40;99.90
27900;DHT22;15243;50.726;7.080;2022-09-01T06:57:02;16.50;99.90
27900;DHT22;15243;50.726;7.080;2022-09-01T06:59:50;16.60;99.90
27900;DHT22;15243;50.726;7.080;2022-09-01T07:02:22;16.80;99.90
27900;DHT22;15243;50.726;7.080;2022-09-01T07:05:11;16.80;99.90
27900;DHT22;15243;50.726;7.080;2022-09-01T07:08:00;16.90;99.90
27900;DHT22;15243;50.726;7.080;2022-09-01T07:10:31;17.00;99.90
27900;DHT22;15243;50.726;7.080;2022-09-01T07:12:58;17.10;99.90
27900;DHT22;15243;50.726;7.080;2022-09-01T07:15:41;17.40;99.90
27900;DHT22;15243;50.726;7.080;2022-09-01T07:18:29;17.40;99.90
27900;DHT22;15243;50.726;7.080;2022-09-01T07:20:57;17.50;99.90
27900;DHT22;15243;50.726;7.080;2022-09-01T07:23:33;17.70;99.90
27900;DHT22;15243;50.726;7.080;2022-09-01T07:26:21;17.60;99.90
27900;DHT22;15243;50.726;7.080;2022-09-01T07:28:52;17.70;99.90
27900;DHT22;15243;50.726;7.080;2022-09-01T07:31:29;17.80;99.90
27900;DHT22;15243;50.726;7.080;2022-09-01T07:34:17;17.80;99.90
27900;DHT22;15243;50.726;7.080;2022-09-01T07:37:04;18.00;99.90
27900;DHT22;15243;50.726;7.080;2022-09-01T07:39:51;18.10;99.90
27900;DHT22;15243;50.726;7.080;2022-09-01T07:42:21;18.10;99.90
27900;DHT22;15243;50.726;7.080;2022-09-01T07:45:09;18.10;99.90
27900;DHT22;15243;50.726;7.080;2022-09-01T07:47:54;18.20;99.90
27900;DHT22;15243;50.726;7.080;2022-09-01T07:50:21;18.20;99.90
27900;DHT22;15243;50.726;7.080;2022-09-01T07:53:05;18.40;99.90
27900;DHT22;15243;50.726;7.080;2022-09-01T07:55:32;18.70;99.90
27900;DHT22;15243;50.726;7.080;2022-09-01T07:58:00;18.70;99.90
27900;DHT22;15243;50.726;7.080;2022-09-01T08:00:27;18.80;99.90
27900;DHT22;15243;50.726;7.080;2022-09-01T08:02:57;18.80;99.90
27900;DHT22;15243;50.726;7.080;2022-09-01T08:05:25;18.80;99.90
27900;DHT22;15243;50.726;7.080;2022-09-01T08:07:53;19.00;99.90
27900;DHT22;15243;50.726;7.080;2022-09-01T08:10:20;19.20;99.90
27900;DHT22;15243;50.726;7.080;2022-09-01T08:12:48;19.10;99.90
27900;DHT22;15243;50.726;7.080;2022-09-01T08:15:22;19.20;99.90
27900;DHT22;15243;50.726;7.080;2022-09-01T08:18:08;19.40;99.90
27900;DHT22;15243;50.726;7.080;2022-09-01T08:20:37;19.30;99.90
27900;DHT22;15243;50.726;7.080;2022-09-01T08:23:05;19.60;99.90
27900;DHT22;15243;50.726;7.080;2022-09-01T08:25:38;19.70;99.90
27900;DHT22;15243;50.726;7.080;2022-09-01T08:28:05;19.70;99.90
27900;DHT22;15243;50.726;7.080;2022-09-01T08:30:33;19.80;99.90
27900;DHT22;15243;50.726;7.080;2022-09-01T08:33:01;20.00;99.90
27900;DHT22;15243;50.726;7.080;2022-09-01T08:35:40;20.00;99.90
27900;DHT22;15243;50.726;7.080;2022-09-01T08:38:08;20.00;99.90
27900;DHT22;15243;50.726;7.080;2022-09-01T08:40:37;19.80;99.90
27900;DHT22;15243;50.726;7.080;2022-09-01T08:43:18;20.00;99.90
27900;DHT22;15243;50.726;7.080;2022-09-01T08:45:52;20.00;99.90
27900;DHT22;15243;50.726;7.080;2022-09-01T08:48:35;20.20;99.90
27900;DHT22;15243;50.726;7.080;2022-09-01T08:54:38;20.30;99.90
27900;DHT22;15243;50.726;7.080;2022-09-01T08:57:33;20.60;99.90
27900;DHT22;15243;50.726;7.080;2022-09-01T09:00:00;20.70;99.90
27900;DHT22;15243;50.726;7.080;2022-09-01T09:08:34;20.90;99.90
27900;DHT22;15243;50.726;7.080;2022-09-01T09:16:55;21.20;99.90
27900;DHT22;15243;50.726;7.080;2022-09-01T09:21:53;20.90;99.90
27900;DHT22;15243;50.726;7.080;2022-09-01T09:24:35;21.30;99.90
27900;DHT22;15243;50.726;7.080;2022-09-01T09:27:20;21.40;99.90
27900;DHT22;15243;50.726;7.080;2022-09-01T09:29:53;21.60;99.90
27900;DHT22;15243;50.726;7.080;2022-09-01T09:32:21;21.60;99.90
27900;DHT22;15243;50.726;7.080;2022-09-01T09:35:22;21.60;99.90
27900;DHT22;15243;50.726;7.080;2022-09-01T09:37:55;21.90;99.90
27900;DHT22;15243;50.726;7.080;2022-09-01T09:40:26;22.10;99.90
27900;DHT22;15243;50.726;7.080;2022-09-01T09:45:30;21.80;99.90
27900;DHT22;15243;50.726;7.080;2022-09-01T09:48:30;22.00;99.90
27900;DHT22;15243;50.726;7.080;2022-09-01T09:51:20;22.20;99.90
27900;DHT22;15243;50.726;7.080;2022-09-01T09:53:48;22.20;99.90
27900;DHT22;15243;50.726;7.080;2022-09-01T09:56:21;22.30;99.90
27900;DHT22;15243;50.726;7.080;2022-09-01T09:58:51;22.50;99.90
27900;DHT22;15243;50.726;7.080;2022-09-01T10:04:00;23.00;99.90
27900;DHT22;15243;50.726;7.080;2022-09-01T10:06:41;23.10;99.90
27900;DHT22;15243;50.726;7.080;2022-09-01T10:09:32;23.10;99.90
27900;DHT22;15243;50.726;7.080;2022-09-01T10:12:00;23.20;99.90
27900;DHT22;15243;50.726;7.080;2022-09-01T10:14:40;23.40;99.90
27900;DHT22;15243;50.726;7.080;2022-09-01T10:17:29;23.50;99.90
27900;DHT22;15243;50.726;7.080;2022-09-01T10:20:06;23.50;99.90
27900;DHT22;15243;50.726;7.080;2022-09-01T10:22:37;23.60;99.90
27900;DHT22;15243;50.726;7.080;2022-09-01T10:25:07;23.70;99.90
27900;DHT22;15243;50.726;7.080;2022-09-01T10:27:39;23.90;99.90
27900;DHT22;15243;50.726;7.080;2022-09-01T10:30:10;23.80;99.90
27900;DHT22;15243;50.726;7.080;2022-09-01T10:32:54;24.10;99.90
27900;DHT22;15243;50.726;7.080;2022-09-01T10:35:43;24.30;99.90
27900;DHT22;15243;50.726;7.080;2022-09-01T10:38:29;23.90;99.90
27900;DHT22;15243;50.726;7.080;2022-09-01T10:40:58;24.20;99.90
27900;DHT22;15243;50.726;7.080;2022-09-01T10:43:47;24.10;99.90
27900;DHT22;15243;50.726;7.080;2022-09-01T10:48:54;23.80;99.90
27900;DHT22;15243;50.726;7.080;2022-09-01T10:54:04;24.00;99.90
27900;DHT22;15243;50.726;7.080;2022-09-01T10:56:45;24.00;99.90
27900;DHT22;15243;50.726;7.080;2022-09-01T10:59:29;23.80;99.90
27900;DHT22;15243;50.726;7.080;2022-09-01T11:02:17;24.30;99.90
27900;DHT22;15243;50.726;7.080;2022-09-01T11:07:35;24.40;99.90
27900;DHT22;15243;50.726;7.080;2022-09-01T11:10:44;23.70;99.90
27900;DHT22;15243;50.726;7.080;2022-09-01T11:13:41;23.80;99.90
27900;DHT22;15243;50.726;7.080;2022-09-01T11:16:31;23.60;99.90
27900;DHT22;15243;50.726;7.080;2022-09-01T11:30:36;24.20;99.90
27900;DHT22;15243;50.726;7.080;2022-09-01T11:38:28;24.10;99.90
27900;DHT22;15243;50.726;7.080;2022-09-01T11:40:56;24.30;99.90
27900;DHT22;15243;50.726;7.080;2022-09-01T11:43:24;24.60;99.90
27900;DHT22;15243;50.726;7.080;2022-09-01T11:46:15;24.50;99.90
27900;DHT22;15243;50.726;7.080;2022-09-01T11:48:47;24.10;99.90
27900;DHT22;15243;50.726;7.080;2022-09-01T11:51:17;24.00;99.90
27900;DHT22;15243;50.726;7.080;2022-09-01T11:53:47;24.00;99.90
27900;DHT22;15243;50.726;7.080;2022-09-01T11:56:17;23.90;99.90
27900;DHT22;15243;50.726;7.080;2022-09-01T11:58:44;23.80;99.90
27900;DHT22;15243;50.726;7.080;2022-09-01T12:01:15;23.70;99.90
27900;DHT22;15243;50.726;7.080;2022-09-01T12:03:44;23.60;99.90
27900;DHT22;15243;50.726;7.080;2022-09-01T12:06:20;23.60;99.90
27900;DHT22;15243;50.726;7.080;2022-09-01T12:09:01;23.70;99.90
27900;DHT22;15243;50.726;7.080;2022-09-01T12:11:32;23.90;99.90
27900;DHT22;15243;50.726;7.080;2022-09-01T12:14:03;24.60;99.90
27900;DHT22;15243;50.726;7.080;2022-09-01T12:16:38;25.20;99.90
27900;DHT22;15243;50.726;7.080;2022-09-01T12:19:22;25.70;99.90
27900;DHT22;15243;50.726;7.080;2022-09-01T12:22:02;26.10;99.90
27900;DHT22;15243;50.726;7.080;2022-09-01T12:24:34;26.00;99.90
27900;DHT22;15243;50.726;7.080;2022-09-01T12:27:02;26.20;99.90
27900;DHT22;15243;50.726;7.080;2022-09-01T12:29:31;26.50;99.90
27900;DHT22;15243;50.726;7.080;2022-09-01T12:31:59;26.90;99.90
27900;DHT22;15243;50.726;7.080;2022-09-01T12:34:40;27.20;99.90
27900;DHT22;15243;50.726;7.080;2022-09-01T12:40:06;26.80;99.90
27900;DHT22;15243;50.726;7.080;2022-09-01T12:42:48;26.80;99.90
27900;DHT22;15243;50.726;7.080;2022-09-01T12:45:38;27.20;99.90
27900;DHT22;15243;50.726;7.080;2022-09-01T12:48:06;27.40;99.90
27900;DHT22;15243;50.726;7.080;2022-09-01T12:50:49;27.30;99.90
27900;DHT22;15243;50.726;7.080;2022-09-01T12:53:19;27.30;99.90
27900;DHT22;15243;50.726;7.080;2022-09-01T12:56:03;27.70;99.90
27900;DHT22;15243;50.726;7.080;2022-09-01T12:58:31;27.50;99.90
27900;DHT22;15243;50.726;7.080;2022-09-01T13:03:28;26.60;99.90
27900;DHT22;15243;50.726;7.080;2022-09-01T13:05:57;26.20;99.90
27900;DHT22;15243;50.726;7.080;2022-09-01T13:08:28;25.90;99.90
27900;DHT22;15243;50.726;7.080;2022-09-01T13:11:08;25.50;99.90
27900;DHT22;15243;50.726;7.080;2022-09-01T13:13:37;25.30;99.90
27900;DHT22;15243;50.726;7.080;2022-09-01T13:16:04;25.20;99.90
27900;DHT22;15243;50.726;7.080;2022-09-01T13:18:40;25.80;99.90
27900;DHT22;15243;50.726;7.080;2022-09-01T13:21:28;26.00;99.90
27900;DHT22;15243;50.726;7.080;2022-09-01T13:23:56;26.80;99.90
27900;DHT22;15243;50.726;7.080;2022-09-01T13:26:23;27.90;99.90
27900;DHT22;15243;50.726;7.080;2022-09-01T13:28:51;28.60;99.30
27900;DHT22;15243;50.726;7.080;2022-09-01T13:31:19;28.90;97.70
27900;DHT22;15243;50.726;7.080;2022-09-01T13:33:55;28.60;96.70
27900;DHT22;15243;50.726;7.080;2022-09-01T13:36:41;27.60;98.50
27900;DHT22;15243;50.726;7.080;2022-09-01T13:39:14;27.00;99.90
27900;DHT22;15243;50.726;7.080;2022-09-01T13:41:41;26.40;99.90
27900;DHT22;15243;50.726;7.080;2022-09-01T13:44:08;26.10;99.90
27900;DHT22;15243;50.726;7.080;2022-09-01T13:46:37;25.90;99.90
27900;DHT22;15243;50.726;7.080;2022-09-01T13:49:24;26.40;99.90
27900;DHT22;15243;50.726;7.080;2022-09-01T13:52:11;27.10;98.40
27900;DHT22;15243;50.726;7.080;2022-09-01T13:54:38;27.10;98.10
27900;DHT22;15243;50.726;7.080;2022-09-01T13:57:06;27.30;96.40
27900;DHT22;15243;50.726;7.080;2022-09-01T13:59:33;26.70;97.10
27900;DHT22;15243;50.726;7.080;2022-09-01T14:02:00;26.50;98.90
27900;DHT22;15243;50.726;7.080;2022-09-01T14:04:27;26.40;99.90
27900;DHT22;15243;50.726;7.080;2022-09-01T14:06:55;26.20;99.60
27900;DHT22;15243;50.726;7.080;2022-09-01T14:09:24;25.60;98.00
27900;DHT22;15243;50.726;7.080;2022-09-01T14:11:54;25.20;98.50
27900;DHT22;15243;50.726;7.080;2022-09-01T14:14:23;25.40;99.90
27900;DHT22;15243;50.726;7.080;2022-09-01T14:16:50;25.20;99.90
27900;DHT22;15243;50.726;7.080;2022-09-01T14:19:17;25.10;99.70
27900;DHT22;15243;50.726;7.080;2022-09-01T14:21:44;25.90;99.90
27900;DHT22;15243;50.726;7.080;2022-09-01T14:24:13;27.30;96.20
27900;DHT22;15243;50.726;7.080;2022-09-01T14:26:41;27.30;93.50
27900;DHT22;15243;50.726;7.080;2022-09-01T14:29:08;27.20;94.30
27900;DHT22;15243;50.726;7.080;2022-09-01T14:31:35;28.60;93.40
27900;DHT22;15243;50.726;7.080;2022-09-01T14:34:04;29.30;87.30
27900;DHT22;15243;50.726;7.080;2022-09-01T14:36:32;28.80;85.30
27900;DHT22;15243;50.726;7.080;2022-09-01T14:38:59;27.40;84.40
27900;DHT22;15243;50.726;7.080;2022-09-01T14:41:26;26.90;90.90
27900;DHT22;15243;50.726;7.080;2022-09-01T14:43:54;26.30;90.40
27900;DHT22;15243;50.726;7.080;2022-09-01T14:46:29;25.90;92.20
27900;DHT22;15243;50.726;7.080;2022-09-01T14:49:00;25.40;93.20
27900;DHT22;15243;50.726;7.080;2022-09-01T14:51:29;25.20;95.00
27900;DHT22;15243;50.726;7.080;2022-09-01T14:54:16;25.10;96.10
27900;DHT22;15243;50.726;7.080;2022-09-01T14:56:43;25.10;97.10
27900;DHT22;15243;50.726;7.080;2022-09-01T14:59:31;25.00;96.50
27900;DHT22;15243;50.726;7.080;2022-09-01T15:01:58;24.70;94.60
27900;DHT22;15243;50.726;7.080;2022-09-01T15:04:25;25.40;96.70
27900;DHT22;15243;50.726;7.080;2022-09-01T15:06:53;27.50;92.50
27900;DHT22;15243;50.726;7.080;2022-09-01T15:09:21;30.00;85.90
27900;DHT22;15243;50.726;7.080;2022-09-01T15:11:48;31.40;74.10
27900;DHT22;15243;50.726;7.080;2022-09-01T15:14:15;32.90;70.80
27900;DHT22;15243;50.726;7.080;2022-09-01T15:16:42;34.00;62.70
27900;DHT22;15243;50.726;7.080;2022-09-01T15:19:12;34.30;58.90
27900;DHT22;15243;50.726;7.080;2022-09-01T15:21:41;33.70;55.20
27900;DHT22;15243;50.726;7.080;2022-09-01T15:24:09;32.80;53.30
27900;DHT22;15243;50.726;7.080;2022-09-01T15:26:37;31.40;53.80
27900;DHT22;15243;50.726;7.080;2022-09-01T15:29:06;30.90;55.50
27900;DHT22;15243;50.726;7.080;2022-09-01T15:31:38;30.60;56.30
27900;DHT22;15243;50.726;7.080;2022-09-01T15:34:05;29.40;55.30
27900;DHT22;15243;50.726;7.080;2022-09-01T15:36:35;28.60;58.70
27900;DHT22;15243;50.726;7.080;2022-09-01T15:39:07;27.70;59.00
27900;DHT22;15243;50.726;7.080;2022-09-01T15:41:35;27.20;60.80
27900;DHT22;15243;50.726;7.080;2022-09-01T15:44:05;26.80;63.70
27900;DHT22;15243;50.726;7.080;2022-09-01T15:46:34;26.50;63.10
27900;DHT22;15243;50.726;7.080;2022-09-01T15:49:04;26.30;62.90
27900;DHT22;15243;50.726;7.080;2022-09-01T15:51:34;26.00;61.80
27900;DHT22;15243;50.726;7.080;2022-09-01T15:54:11;26.10;63.20
27900;DHT22;15243;50.726;7.080;2022-09-01T15:56:38;26.10;65.20
27900;DHT22;15243;50.726;7.080;2022-09-01T15:59:07;25.90;65.30
27900;DHT22;15243;50.726;7.080;2022-09-01T16:01:36;26.10;64.70
27900;DHT22;15243;50.726;7.080;2022-09-01T16:04:06;26.30;64.00
27900;DHT22;15243;50.726;7.080;2022-09-01T16:06:34;26.40;64.90
27900;DHT22;15243;50.726;7.080;2022-09-01T16:09:01;26.80;65.60
27900;DHT22;15243;50.726;7.080;2022-09-01T16:11:28;26.70;65.30
27900;DHT22;15243;50.726;7.080;2022-09-01T16:13:55;26.60;62.20
27900;DHT22;15243;50.726;7.080;2022-09-01T16:24:46;26.70;62.40
27900;DHT22;15243;50.726;7.080;2022-09-01T16:27:17;26.60;64.40
27900;DHT22;15243;50.726;7.080;2022-09-01T16:29:50;26.40;63.40
27900;DHT22;15243;50.726;7.080;2022-09-01T16:32:19;26.40;63.30
27900;DHT22;15243;50.726;7.080;2022-09-01T16:34:50;26.50;64.70
27900;DHT22;15243;50.726;7.080;2022-09-01T16:37:38;26.30;64.90
27900;DHT22;15243;50.726;7.080;2022-09-01T16:40:44;26.00;63.50
27900;DHT22;15243;50.726;7.080;2022-09-01T16:43:25;25.90;63.80
27900;DHT22;15243;50.726;7.080;2022-09-01T16:48:42;25.50;65.00
27900;DHT22;15243;50.726;7.080;2022-09-01T16:51:42;25.40;64.90
27900;DHT22;15243;50.726;7.080;2022-09-01T16:57:45;25.20;66.00
27900;DHT22;15243;50.726;7.080;2022-09-01T17:00:27;25.20;66.10
27900;DHT22;15243;50.726;7.080;2022-09-01T17:03:15;25.30;67.90
27900;DHT22;15243;50.726;7.080;2022-09-01T17:05:53;25.00;66.70
27900;DHT22;15243;50.726;7.080;2022-09-01T17:08:25;24.90;67.40
27900;DHT22;15243;50.726;7.080;2022-09-01T17:16:05;24.80;69.70
27900;DHT22;15243;50.726;7.080;2022-09-01T17:18:39;24.60;68.50
27900;DHT22;15243;50.726;7.080;2022-09-01T17:23:43;24.40;73.20